Pagrindinis puslapis
METAR-TAF:

METAR-TAF

Oro uostai :

Kampina Grandė, Paraiba, Brazilija

platuma: 07-13S, ilguma: 035-53W, Aukštis: 548 m

Dabartinis oras

Ataskaita buvo paskelbta 2 valandos ir 1 minutes, ne 22:00 UTC
Vėjas 8 kt iš Rytų
Temperatūra 26°C
Drėgmė 84%
Slėgis 1015 hPa
Matomumas 10 km arba daugiau
Išsisklaidę debesys ne aukštis 3000 ft

METAR: SBKG 052200Z 10008KT 9999 SCT030 26/23 Q1015

Laikas: 21:01 (00:01 UTC)

Prognozė

Prognozė galioja nuo 05 metu 09 UTC su 06 metu 00 UTC
Vėjas 5 kt iš Pietų/Pietryčių
Matomumas 10 km arba daugiau
Mažai debesys ne aukštis 1600 ft
Tapsmas
nuo 05 metu 12 UTC su 05 metu 14 UTC
Vėjas 8 kt iš Rytų/Pietryčių
Su prošvaistėmis ne aukštis 2500 ft
Tapsmas
nuo 05 metu 15 UTC su 05 metu 17 UTC
Išsisklaidę debesys ne aukštis 2500 ft
Tapsmas
nuo 05 metu 19 UTC su 05 metu 21 UTC
Vėjas 8 kt iš Rytų
Išsisklaidę debesys ne aukštis 2000 ft

TAF: SBKG 050900 0512/0524 15005KT 9999 FEW016 TX29/0516Z TN25/0523Z BECMG 0512/0514 11008KT BKN025 BECMG 0515/0517 SCT025 BECMG 0519/0521 09008KT SCT020 RMK PDL

Orai ataskaitas ir orų prognozės (METAR, TAF).

turimą stotys yra geltonos ir raudonos taškus žemėlapyje.

Perkelti pele per norėdami pamatyti stoties vardą.

Tada spustelėkite, norėdami matyti oro stebėjimo ir prognozės.

Norėdami pakeisti žemėlapį: spustelėkite ant žalios mygtukų su juodo kryžiaus žemyn,; žalią mygtuką su brūkšneliu, jei norite nutolinti; arba žalių rodyklių gretimoms žemėlapius.


METAR-TAF: